Řízení letového provozu České republiky  
Aktualizace dat:  26.11.2022 18:42:32 UTC English version
   METEO Zobrazení stránky:  26.11.2022 18:43:26 UTC  
vysvětlivky
METAR EDAC 261820Z AUTO VRB02KT 9999 // FEW042/// 04/03 Q1030=
METAR EDDB 261820Z AUTO VRB02KT 9999 BKN009 OVC016 07/06 Q1030 TEMPO BKN010=
METAR EDDC 261820Z AUTO VRB02KT 9999 FEW017 SCT037 06/05 Q1030 NOSIG=
METAR EDDE 261820Z AUTO 25009KT 9999 SCT016 05/03 Q1030 NOSIG=
METAR EDDF 261820Z AUTO VRB02KT 9999 OVC015 06/05 Q1031 NOSIG=
METAR EDDM 261820Z AUTO 23001KT 9999 FEW018 00/M01 Q1031 TEMPO 3500 BCFG=
METAR EDDN 261820Z AUTO 09002KT 6000 OVC029 05/04 Q1031 TEMPO 4000 BR=
METAR EDDP 261820Z AUTO 24007KT 9999 FEW033 04/03 Q1030 NOSIG=
METAR EDQM 261820Z AUTO VRB02KT 9999 // OVC033/// 03/02 Q1030=
METAR EPBY 261830Z 25004KT 4000 BR BKN045 00/M00 Q1029=
METAR EPGD 261830Z 28003KT 5000 BR FEW004 SCT031 02/02 Q1027=
METAR EPKK 261830Z 32004KT 290V350 9999 SCT020 BKN040 05/03 Q1027=
METAR EPKT 261830Z 32003KT 4700 BR FEW004 OVC007 03/03 Q1028=
METAR EPLB 261830Z 31004KT 2700 -SN BR SCT003 BKN005 OVC007 00/00 Q1027=
METAR EPLL 261830Z 27003KT 3800 BR OVC003 M01/M02 Q1028=
METAR EPMO 261830Z 26005KT 7000 FEW014 OVC024 00/M01 Q1028=
METAR EPPO 261830Z 32001KT 1900 BR FEW002 SCT005 OVC023 03/03 Q1029=
METAR EPRZ 261830Z 31005KT 280V350 6000 OVC009 05/04 Q1026=
METAR EPWA 261830Z 32006KT 9999 FEW010 BKN026 00/M01 Q1028 NOSIG=
METAR EPWR 261830Z 06002KT 3500 -RA BR SCT002 BKN004 05/05 Q1029=
METAR LHBP 261830Z 10002KT 2000 R31L/P2000N R31R/0400D BCFG BR NSC M00/M00 Q1028 TEMPO 1200=
METAR LHSM 261815Z AUTO 31003KT 9999 FEW037 05/05 Q1030=
METAR LKBC NIL
METAR LKCS 261830Z AUTO 00000KT 9999 BKN027/// 03/02 Q1030=
METAR LKCV 261830Z 28007KT CAVOK 06/05 Q1030 NOSIG RMK BLU BLU=
METAR LKKB 261830Z 27004KT 9999 BKN048 06/02 Q1030 NOSIG RMK BLU BLU=
METAR LKKU NIL
METAR LKKV 261830Z 26004KT 9999 BKN026 04/01 Q1030=
METAR LKLN 261830Z AUTO 22002KT 9999 BKN043 03/02 Q1031=
METAR LKMT 261830Z 01003KT 330V040 9999 FEW013 BKN049 06/04 Q1029 NOSIG=
METAR LKNA 261830Z 29008KT CAVOK 02/02 Q1029 NOSIG RMK BLU BLU=
METAR LKPD 261830Z 28006KT CAVOK 06/05 Q1029 NOSIG RMK BLU BLU=
METAR LKPJ 261830Z AUTO 30005KT 9999 FEW031/// OVC035/// 07/04 Q1029=
METAR LKPR 261830Z 23005KT CAVOK 04/02 Q1030 NOSIG=
METAR LKTB 261830Z 28002KT 9999 FEW049 06/04 Q1029 NOSIG=
METAR LKVO NIL
METAR LOWG 261820Z AUTO 27003KT 230V290 CAVOK 02/02 Q1030 TEMPO 2000 BCFG=
METAR LOWI 261820Z VRB02KT 9999 BKN025 02/01 Q1031 NOSIG=
METAR LOWK 261820Z VRB02KT 9999 FEW004 BKN006 02/02 Q1030 NOSIG=
METAR LOWL 261820Z AUTO 24005KT 9999 SCT060 05/04 Q1031 NOSIG=
METAR LOWS 261820Z AUTO 15004KT 9999 FEW046 BKN060 05/04 Q1031 NOSIG=
METAR LOWW 261820Z 30008KT 270V330 9999 FEW034 07/04 Q1029 NOSIG=
METAR LOXZ 261750Z 21003KT 9999 FEW035 BKN060 02/01 Q1029=
METAR LZIB 261830Z 31005KT CAVOK 08/04 Q1029 NOSIG=
METAR LZKZ 261830Z VRB01KT 9999 OVC008 04/03 Q1028 NOSIG=
METAR LZPP 261830Z 12003KT 5000 BR BCFG NSC 04/04 Q1028=
METAR LZTT 261830Z 28003KT 9999 FEW016 BKN056 02/01 Q1025=
METAR LZZI 261830Z 28003KT 2600 -RA BR BKN027 OVC033 05/05 Q1028=